sensor_id;sensor_type;location;lat;lon;timestamp;pressure;altitude;pressure_sealevel;temperature;humidity
34124;BME280;13153;52.316;21.166;2023-03-26T00:00:59;99070.41;;;14.69;50.71
34124;BME280;13153;52.316;21.166;2023-03-26T00:03:25;99070.47;;;14.63;50.54
34124;BME280;13153;52.316;21.166;2023-03-26T00:06:13;99071.28;;;14.70;50.25
34124;BME280;13153;52.316;21.166;2023-03-26T00:08:42;99074.97;;;14.53;50.71
34124;BME280;13153;52.316;21.166;2023-03-26T00:11:13;99086.47;;;14.52;50.84
34124;BME280;13153;52.316;21.166;2023-03-26T00:13:39;99082.03;;;14.54;50.95
34124;BME280;13153;52.316;21.166;2023-03-26T00:16:10;99083.81;;;14.54;51.49
34124;BME280;13153;52.316;21.166;2023-03-26T00:18:39;99075.00;;;14.50;51.38
34124;BME280;13153;52.316;21.166;2023-03-26T00:21:11;99076.81;;;14.48;51.59
34124;BME280;13153;52.316;21.166;2023-03-26T00:23:37;99073.34;;;14.40;51.45
34124;BME280;13153;52.316;21.166;2023-03-26T00:26:07;99072.50;;;14.38;51.74
34124;BME280;13153;52.316;21.166;2023-03-26T00:28:40;99068.09;;;14.37;51.64
34124;BME280;13153;52.316;21.166;2023-03-26T00:31:11;99057.50;;;14.37;51.72
34124;BME280;13153;52.316;21.166;2023-03-26T00:33:38;99057.53;;;14.36;51.52
34124;BME280;13153;52.316;21.166;2023-03-26T00:36:12;99050.50;;;14.33;51.45
34124;BME280;13153;52.316;21.166;2023-03-26T00:38:43;99059.41;;;14.23;51.74
34124;BME280;13153;52.316;21.166;2023-03-26T00:41:15;99051.56;;;14.14;51.76
34124;BME280;13153;52.316;21.166;2023-03-26T00:43:50;99051.56;;;14.12;51.71
34124;BME280;13153;52.316;21.166;2023-03-26T00:46:16;99047.19;;;14.08;51.88
34124;BME280;13153;52.316;21.166;2023-03-26T00:48:44;99042.81;;;14.04;51.88
34124;BME280;13153;52.316;21.166;2023-03-26T00:51:11;99047.31;;;13.96;51.94
34124;BME280;13153;52.316;21.166;2023-03-26T00:53:37;99049.94;;;13.96;52.37
34124;BME280;13153;52.316;21.166;2023-03-26T00:56:05;99049.06;;;13.96;52.20
34124;BME280;13153;52.316;21.166;2023-03-26T00:58:32;99050.00;;;13.90;51.92
34124;BME280;13153;52.316;21.166;2023-03-26T01:01:03;99053.53;;;13.87;52.10
34124;BME280;13153;52.316;21.166;2023-03-26T01:03:33;99049.19;;;13.85;52.42
34124;BME280;13153;52.316;21.166;2023-03-26T01:06:06;99045.69;;;13.80;52.28
34124;BME280;13153;52.316;21.166;2023-03-26T01:08:38;99051.91;;;13.76;52.66
34124;BME280;13153;52.316;21.166;2023-03-26T01:11:20;99044.00;;;13.71;52.41
34124;BME280;13153;52.316;21.166;2023-03-26T01:13:54;99049.31;;;13.68;52.38
34124;BME280;13153;52.316;21.166;2023-03-26T01:16:41;99042.25;;;13.69;52.59
34124;BME280;13153;52.316;21.166;2023-03-26T01:19:24;99042.22;;;13.73;52.41
34124;BME280;13153;52.316;21.166;2023-03-26T01:21:53;99039.50;;;13.84;51.86
34124;BME280;13153;52.316;21.166;2023-03-26T01:24:20;99040.28;;;13.91;51.65
34124;BME280;13153;52.316;21.166;2023-03-26T01:32:49;99034.25;;;13.81;52.34
34124;BME280;13153;52.316;21.166;2023-03-26T01:38:02;99026.28;;;13.84;52.17
34124;BME280;13153;52.316;21.166;2023-03-26T01:40:58;99020.94;;;13.87;51.87
34124;BME280;13153;52.316;21.166;2023-03-26T01:44:30;99019.16;;;13.87;51.88
34124;BME280;13153;52.316;21.166;2023-03-26T01:46:36;99013.88;;;13.87;51.78
34124;BME280;13153;52.316;21.166;2023-03-26T01:49:04;99021.78;;;13.91;52.10
34124;BME280;13153;52.316;21.166;2023-03-26T01:51:39;99014.72;;;13.91;51.52
34124;BME280;13153;52.316;21.166;2023-03-26T01:54:13;99012.09;;;13.91;51.68
34124;BME280;13153;52.316;21.166;2023-03-26T02:00:17;99000.75;;;13.80;51.82
34124;BME280;13153;52.316;21.166;2023-03-26T02:03:21;99005.22;;;13.73;52.30
34124;BME280;13153;52.316;21.166;2023-03-26T02:06:36;99004.31;;;13.76;52.52
34124;BME280;13153;52.316;21.166;2023-03-26T02:09:06;98989.34;;;13.76;52.50
34124;BME280;13153;52.316;21.166;2023-03-26T02:11:36;99003.44;;;13.75;52.70
34124;BME280;13153;52.316;21.166;2023-03-26T02:14:07;98998.97;;;13.82;52.27
34124;BME280;13153;52.316;21.166;2023-03-26T02:16:33;98999.00;;;13.80;52.47
34124;BME280;13153;52.316;21.166;2023-03-26T02:18:59;98997.22;;;13.82;52.29
34124;BME280;13153;52.316;21.166;2023-03-26T02:21:27;98997.19;;;13.85;52.20
34124;BME280;13153;52.316;21.166;2023-03-26T02:23:56;98990.06;;;13.91;52.48
34124;BME280;13153;52.316;21.166;2023-03-26T02:26:29;98978.59;;;13.92;52.39
34124;BME280;13153;52.316;21.166;2023-03-26T02:28:56;98991.91;;;13.84;52.38
34124;BME280;13153;52.316;21.166;2023-03-26T02:31:23;98982.13;;;13.91;52.39
34124;BME280;13153;52.316;21.166;2023-03-26T02:33:53;98975.06;;;13.93;52.33
34124;BME280;13153;52.316;21.166;2023-03-26T02:36:21;98982.13;;;13.91;52.50
34124;BME280;13153;52.316;21.166;2023-03-26T02:38:53;98982.13;;;13.92;52.41
34124;BME280;13153;52.316;21.166;2023-03-26T02:41:19;98977.72;;;13.89;52.34
34124;BME280;13153;52.316;21.166;2023-03-26T02:43:46;98982.16;;;13.87;52.50
34124;BME280;13153;52.316;21.166;2023-03-26T02:46:11;98976.03;;;13.85;52.17
34124;BME280;13153;52.316;21.166;2023-03-26T02:48:37;98980.41;;;13.86;52.55
34124;BME280;13153;52.316;21.166;2023-03-26T02:51:03;98981.34;;;13.82;52.62
34124;BME280;13153;52.316;21.166;2023-03-26T02:53:31;98979.56;;;13.84;52.69
34124;BME280;13153;52.316;21.166;2023-03-26T02:55:58;98983.13;;;13.82;52.47
34124;BME280;13153;52.316;21.166;2023-03-26T02:58:25;98984.00;;;13.81;52.66
34124;BME280;13153;52.316;21.166;2023-03-26T03:00:55;98985.78;;;13.79;52.35
34124;BME280;13153;52.316;21.166;2023-03-26T03:03:26;98984.97;;;13.72;52.86
34124;BME280;13153;52.316;21.166;2023-03-26T03:05:56;98981.50;;;13.67;52.76
34124;BME280;13153;52.316;21.166;2023-03-26T03:08:25;98981.50;;;13.66;53.38
34124;BME280;13153;52.316;21.166;2023-03-26T03:11:02;98990.31;;;13.63;53.32
34124;BME280;13153;52.316;21.166;2023-03-26T03:13:28;98985.91;;;13.65;53.24
34124;BME280;13153;52.316;21.166;2023-03-26T03:15:54;98997.34;;;13.69;53.01
34124;BME280;13153;52.316;21.166;2023-03-26T03:18:20;98995.53;;;13.72;53.19
34124;BME280;13153;52.316;21.166;2023-03-26T03:20:46;99000.81;;;13.75;52.56
34124;BME280;13153;52.316;21.166;2023-03-26T03:23:13;98999.88;;;13.79;52.35
34124;BME280;13153;52.316;21.166;2023-03-26T03:25:39;98998.97;;;13.82;52.42
34124;BME280;13153;52.316;21.166;2023-03-26T03:28:06;99000.72;;;13.84;52.71
34124;BME280;13153;52.316;21.166;2023-03-26T03:30:33;98993.63;;;13.86;52.37
34124;BME280;13153;52.316;21.166;2023-03-26T03:32:58;98994.47;;;13.88;52.43
34124;BME280;13153;52.316;21.166;2023-03-26T03:35:28;99002.41;;;13.90;52.12
34124;BME280;13153;52.316;21.166;2023-03-26T03:37:56;99002.38;;;13.92;51.90
34124;BME280;13153;52.316;21.166;2023-03-26T03:40:22;98999.75;;;13.92;52.02
34124;BME280;13153;52.316;21.166;2023-03-26T03:42:48;99003.28;;;13.89;51.75
34124;BME280;13153;52.316;21.166;2023-03-26T03:45:14;98998.00;;;13.89;52.22
34124;BME280;13153;52.316;21.166;2023-03-26T03:47:39;98991.84;;;13.87;51.68
34124;BME280;13153;52.316;21.166;2023-03-26T03:50:06;99002.47;;;13.85;51.82
34124;BME280;13153;52.316;21.166;2023-03-26T03:52:32;98995.41;;;13.86;52.04
34124;BME280;13153;52.316;21.166;2023-03-26T03:54:58;98997.13;;;13.87;52.10
34124;BME280;13153;52.316;21.166;2023-03-26T03:57:28;98998.00;;;13.89;51.98
34124;BME280;13153;52.316;21.166;2023-03-26T03:59:54;98994.47;;;13.92;52.01
34124;BME280;13153;52.316;21.166;2023-03-26T04:02:26;98997.06;;;13.95;52.04
34124;BME280;13153;52.316;21.166;2023-03-26T04:05:00;98997.97;;;13.92;51.72
34124;BME280;13153;52.316;21.166;2023-03-26T04:07:28;98997.06;;;13.96;51.55
34124;BME280;13153;52.316;21.166;2023-03-26T04:09:58;98995.28;;;13.98;51.35
34124;BME280;13153;52.316;21.166;2023-03-26T04:12:27;98993.50;;;14.00;51.50
34124;BME280;13153;52.316;21.166;2023-03-26T04:14:54;98991.72;;;14.01;51.89
34124;BME280;13153;52.316;21.166;2023-03-26T04:17:21;98989.09;;;14.01;51.37
34124;BME280;13153;52.316;21.166;2023-03-26T04:19:51;98997.00;;;14.02;51.52
34124;BME280;13153;52.316;21.166;2023-03-26T04:22:20;98990.88;;;13.99;51.28
34124;BME280;13153;52.316;21.166;2023-03-26T04:24:46;98991.75;;;13.99;51.98
34124;BME280;13153;52.316;21.166;2023-03-26T04:27:18;98982.09;;;13.94;51.45
34124;BME280;13153;52.316;21.166;2023-03-26T04:29:49;98989.31;;;13.81;52.07
34124;BME280;13153;52.316;21.166;2023-03-26T04:32:23;98978.63;;;13.88;51.96
34124;BME280;13153;52.316;21.166;2023-03-26T04:34:51;98981.25;;;13.88;52.18
34124;BME280;13153;52.316;21.166;2023-03-26T04:37:32;98971.59;;;13.87;51.76
34124;BME280;13153;52.316;21.166;2023-03-26T04:40:04;98980.38;;;13.88;52.02
34124;BME280;13153;52.316;21.166;2023-03-26T04:42:32;98978.59;;;13.90;51.77
34124;BME280;13153;52.316;21.166;2023-03-26T04:44:58;98976.84;;;13.91;51.84
34124;BME280;13153;52.316;21.166;2023-03-26T04:47:27;98982.16;;;13.87;51.94
34124;BME280;13153;52.316;21.166;2023-03-26T04:49:53;98978.78;;;13.73;51.98
34124;BME280;13153;52.316;21.166;2023-03-26T04:52:19;98983.19;;;13.73;52.23
34124;BME280;13153;52.316;21.166;2023-03-26T04:54:45;98984.06;;;13.73;51.77
34124;BME280;13153;52.316;21.166;2023-03-26T04:57:20;98984.94;;;13.75;51.93
34124;BME280;13153;52.316;21.166;2023-03-26T04:59:48;98979.66;;;13.74;51.63
34124;BME280;13153;52.316;21.166;2023-03-26T05:02:14;98990.25;;;13.72;51.81
34124;BME280;13153;52.316;21.166;2023-03-26T05:04:40;98989.38;;;13.70;51.73
34124;BME280;13153;52.316;21.166;2023-03-26T05:07:11;98987.69;;;13.62;52.65
34124;BME280;13153;52.316;21.166;2023-03-26T05:09:40;98990.28;;;13.69;53.93
34124;BME280;13153;52.316;21.166;2023-03-26T05:12:06;98993.84;;;13.62;54.00
34124;BME280;13153;52.316;21.166;2023-03-26T05:14:32;98987.72;;;13.59;54.62
34124;BME280;13153;52.316;21.166;2023-03-26T05:16:59;98990.38;;;13.57;54.50
34124;BME280;13153;52.316;21.166;2023-03-26T05:19:25;98989.47;;;13.58;54.65
34124;BME280;13153;52.316;21.166;2023-03-26T05:21:51;98982.44;;;13.57;55.35
34124;BME280;13153;52.316;21.166;2023-03-26T05:24:17;98985.09;;;13.57;55.18
34124;BME280;13153;52.316;21.166;2023-03-26T05:26:44;98993.00;;;13.59;56.09
34124;BME280;13153;52.316;21.166;2023-03-26T05:29:10;98985.94;;;13.61;55.81
34124;BME280;13153;52.316;21.166;2023-03-26T05:31:36;98992.97;;;13.63;55.21
34124;BME280;13153;52.316;21.166;2023-03-26T05:34:02;98984.13;;;13.69;55.14
34124;BME280;13153;52.316;21.166;2023-03-26T05:36:28;98977.06;;;13.69;55.19
34124;BME280;13153;52.316;21.166;2023-03-26T05:38:54;98973.53;;;13.70;55.00
34124;BME280;13153;52.316;21.166;2023-03-26T05:41:20;98983.22;;;13.71;54.98
34124;BME280;13153;52.316;21.166;2023-03-26T05:43:46;98981.44;;;13.72;54.65
34124;BME280;13153;52.316;21.166;2023-03-26T05:46:14;98978.78;;;13.73;55.00
34124;BME280;13153;52.316;21.166;2023-03-26T05:48:40;98978.75;;;13.78;54.07
34124;BME280;13153;52.316;21.166;2023-03-26T05:51:06;98979.59;;;13.83;54.02
34124;BME280;13153;52.316;21.166;2023-03-26T05:53:32;98981.31;;;13.85;54.25
34124;BME280;13153;52.316;21.166;2023-03-26T05:55:58;98978.59;;;13.90;53.90
34124;BME280;13153;52.316;21.166;2023-03-26T05:58:29;98975.06;;;13.93;53.63
34124;BME280;13153;52.316;21.166;2023-03-26T06:00:57;98979.41;;;13.98;53.81
34124;BME280;13153;52.316;21.166;2023-03-26T06:03:23;98976.66;;;14.09;53.52
34124;BME280;13153;52.316;21.166;2023-03-26T06:05:50;98974.03;;;14.07;53.12
34124;BME280;13153;52.316;21.166;2023-03-26T06:08:16;98966.03;;;14.15;52.46
34124;BME280;13153;52.316;21.166;2023-03-26T06:10:43;98972.09;;;14.25;52.46
34124;BME280;13153;52.316;21.166;2023-03-26T06:13:09;98979.09;;;14.30;51.87
34124;BME280;13153;52.316;21.166;2023-03-26T06:15:36;98968.44;;;14.35;51.93
34124;BME280;13153;52.316;21.166;2023-03-26T06:18:02;98972.81;;;14.40;51.83
34124;BME280;13153;52.316;21.166;2023-03-26T06:20:28;98973.56;;;14.50;51.17
34124;BME280;13153;52.316;21.166;2023-03-26T06:22:53;98965.44;;;14.67;51.04
34124;BME280;13153;52.316;21.166;2023-03-26T06:25:19;98966.19;;;14.76;50.91
34124;BME280;13153;52.316;21.166;2023-03-26T06:27:45;98978.53;;;14.77;50.39
34124;BME280;13153;52.316;21.166;2023-03-26T06:30:11;98976.78;;;14.75;50.54
34124;BME280;13153;52.316;21.166;2023-03-26T06:32:37;98972.50;;;14.65;50.13
34124;BME280;13153;52.316;21.166;2023-03-26T06:35:04;98973.38;;;14.67;50.06
34124;BME280;13153;52.316;21.166;2023-03-26T06:37:29;98973.28;;;14.73;50.03
34124;BME280;13153;52.316;21.166;2023-03-26T06:39:55;98974.94;;;14.81;50.12
34124;BME280;13153;52.316;21.166;2023-03-26T06:42:21;98975.78;;;14.85;49.87
34124;BME280;13153;52.316;21.166;2023-03-26T06:44:47;98978.44;;;14.83;49.78
34124;BME280;13153;52.316;21.166;2023-03-26T06:47:12;98975.84;;;14.79;49.58
34124;BME280;13153;52.316;21.166;2023-03-26T06:49:38;98974.19;;;14.72;49.84
34124;BME280;13153;52.316;21.166;2023-03-26T06:52:06;98975.97;;;14.70;50.39
34124;BME280;13153;52.316;21.166;2023-03-26T06:54:32;98966.41;;;14.58;50.81
34124;BME280;13153;52.316;21.166;2023-03-26T06:56:57;98983.16;;;14.59;50.50
34124;BME280;13153;52.316;21.166;2023-03-26T06:59:24;98980.50;;;14.62;50.97
34124;BME280;13153;52.316;21.166;2023-03-26T07:01:50;98982.28;;;14.58;51.14
34124;BME280;13153;52.316;21.166;2023-03-26T07:04:16;98982.31;;;14.55;51.99
34124;BME280;13153;52.316;21.166;2023-03-26T07:06:42;98980.53;;;14.59;52.52
34124;BME280;13153;52.316;21.166;2023-03-26T07:09:08;98986.72;;;14.56;52.94
34124;BME280;13153;52.316;21.166;2023-03-26T07:11:34;98980.50;;;14.60;53.19
34124;BME280;13153;52.316;21.166;2023-03-26T07:13:59;98982.28;;;14.58;53.04
34124;BME280;13153;52.316;21.166;2023-03-26T07:16:25;98986.63;;;14.64;53.19
34124;BME280;13153;52.316;21.166;2023-03-26T07:18:51;98985.63;;;14.74;52.85
34124;BME280;13153;52.316;21.166;2023-03-26T07:21:19;98986.28;;;14.91;53.12
34124;BME280;13153;52.316;21.166;2023-03-26T07:23:47;98987.59;;;15.23;52.85
34124;BME280;13153;52.316;21.166;2023-03-26T07:26:24;98981.69;;;15.62;51.70
34124;BME280;13153;52.316;21.166;2023-03-26T07:29:07;98986.34;;;16.00;50.85
34124;BME280;13153;52.316;21.166;2023-03-26T07:31:49;98976.13;;;16.25;49.92
34124;BME280;13153;52.316;21.166;2023-03-26T07:34:43;98974.78;;;16.49;49.00
34124;BME280;13153;52.316;21.166;2023-03-26T07:45:53;98967.47;;;17.39;46.31
34124;BME280;13153;52.316;21.166;2023-03-26T07:48:23;98971.72;;;17.47;46.24
34124;BME280;13153;52.316;21.166;2023-03-26T07:50:51;98967.47;;;17.39;46.28
34124;BME280;13153;52.316;21.166;2023-03-26T07:53:17;98968.38;;;17.38;46.19
34124;BME280;13153;52.316;21.166;2023-03-26T07:56:21;98961.69;;;17.23;46.53
34124;BME280;13153;52.316;21.166;2023-03-26T08:02:45;98961.56;;;16.89;46.75
34124;BME280;13153;52.316;21.166;2023-03-26T08:05:29;98962.06;;;16.66;47.25
34124;BME280;13153;52.316;21.166;2023-03-26T08:16:29;98967.56;;;15.62;50.17
34124;BME280;13153;52.316;21.166;2023-03-26T08:19:20;98972.97;;;15.57;50.81
34124;BME280;13153;52.316;21.166;2023-03-26T08:21:57;98964.34;;;15.40;51.26
34124;BME280;13153;52.316;21.166;2023-03-26T08:30:19;98954.53;;;15.46;51.89
34124;BME280;13153;52.316;21.166;2023-03-26T08:33:17;98947.84;;;15.76;51.30
34124;BME280;13153;52.316;21.166;2023-03-26T08:35:45;98947.03;;;16.19;50.54
34124;BME280;13153;52.316;21.166;2023-03-26T08:38:14;98944.44;;;16.61;49.01
34124;BME280;13153;52.316;21.166;2023-03-26T08:50:30;98953.63;;;16.00;48.27
34124;BME280;13153;52.316;21.166;2023-03-26T09:28:19;98928.19;;;16.76;46.73
34124;BME280;13153;52.316;21.166;2023-03-26T09:37:16;98925.44;;;17.55;44.53
34124;BME280;13153;52.316;21.166;2023-03-26T09:40:17;98931.88;;;17.44;44.73
34124;BME280;13153;52.316;21.166;2023-03-26T10:00:55;98925.50;;;16.34;50.46
34124;BME280;13153;52.316;21.166;2023-03-26T10:07:00;98919.56;;;16.22;50.00
34124;BME280;13153;52.316;21.166;2023-03-26T10:09:53;98922.50;;;16.09;48.91
34124;BME280;13153;52.316;21.166;2023-03-26T10:12:30;98919.81;;;16.11;48.98
34124;BME280;13153;52.316;21.166;2023-03-26T10:15:30;98913.38;;;16.23;48.95
34124;BME280;13153;52.316;21.166;2023-03-26T10:18:03;98913.72;;;16.49;47.83
34124;BME280;13153;52.316;21.166;2023-03-26T10:24:15;98903.16;;;16.86;46.26
34124;BME280;13153;52.316;21.166;2023-03-26T10:27:31;98909.94;;;16.61;47.04
34124;BME280;13153;52.316;21.166;2023-03-26T10:36:32;98912.16;;;16.80;47.86
34124;BME280;13153;52.316;21.166;2023-03-26T10:51:12;98892.16;;;17.74;44.21
34124;BME280;13153;52.316;21.166;2023-03-26T10:56:32;98885.50;;;17.56;44.20
34124;BME280;13153;52.316;21.166;2023-03-26T10:59:07;98876.13;;;17.41;44.07
34124;BME280;13153;52.316;21.166;2023-03-26T11:01:40;98884.28;;;17.34;44.09
34124;BME280;13153;52.316;21.166;2023-03-26T11:09:49;98897.03;;;16.42;47.86
34124;BME280;13153;52.316;21.166;2023-03-26T11:15:29;98895.88;;;16.14;49.80
34124;BME280;13153;52.316;21.166;2023-03-26T11:18:22;98890.09;;;16.35;50.08
34124;BME280;13153;52.316;21.166;2023-03-26T11:21:29;98898.38;;;16.65;48.93
34124;BME280;13153;52.316;21.166;2023-03-26T11:27:06;98890.56;;;16.96;46.53
34124;BME280;13153;52.316;21.166;2023-03-26T11:29:44;98891.34;;;16.99;46.71
34124;BME280;13153;52.316;21.166;2023-03-26T11:32:28;98891.28;;;17.02;46.75
34124;BME280;13153;52.316;21.166;2023-03-26T11:35:29;98886.63;;;17.12;46.55
34124;BME280;13153;52.316;21.166;2023-03-26T11:38:12;98891.03;;;17.13;46.43
34124;BME280;13153;52.316;21.166;2023-03-26T11:40:43;98885.13;;;17.00;45.86
34124;BME280;13153;52.316;21.166;2023-03-26T11:43:18;98893.34;;;16.90;46.26
34124;BME280;13153;52.316;21.166;2023-03-26T11:45:47;98891.94;;;16.75;46.78
34124;BME280;13153;52.316;21.166;2023-03-26T11:48:45;98897.97;;;16.81;47.08
34124;BME280;13153;52.316;21.166;2023-03-26T11:51:30;98889.72;;;16.94;45.35
34124;BME280;13153;52.316;21.166;2023-03-26T11:54:05;98902.47;;;16.78;45.33
34124;BME280;13153;52.316;21.166;2023-03-26T11:59:31;98898.81;;;16.83;46.12
34124;BME280;13153;52.316;21.166;2023-03-26T12:04:40;98899.78;;;16.79;45.28
34124;BME280;13153;52.316;21.166;2023-03-26T12:07:17;98900.75;;;16.75;45.52
34124;BME280;13153;52.316;21.166;2023-03-26T12:12:30;98943.66;;;16.56;46.78
34124;BME280;13153;52.316;21.166;2023-03-26T12:14:57;98946.88;;;16.28;48.67
34124;BME280;13153;52.316;21.166;2023-03-26T12:17:30;98934.38;;;15.89;50.23
34124;BME280;13153;52.316;21.166;2023-03-26T12:19:57;98927.78;;;15.62;51.21
34124;BME280;13153;52.316;21.166;2023-03-26T12:22:38;98927.97;;;15.51;51.90
34124;BME280;13153;52.316;21.166;2023-03-26T12:25:22;98925.31;;;15.51;51.51
34124;BME280;13153;52.316;21.166;2023-03-26T12:30:40;98919.25;;;15.43;52.99
34124;BME280;13153;52.316;21.166;2023-03-26T12:33:18;98920.13;;;15.43;53.38
34124;BME280;13153;52.316;21.166;2023-03-26T12:35:47;98908.50;;;15.52;54.47
34124;BME280;13153;52.316;21.166;2023-03-26T12:38:30;98911.81;;;15.65;54.48
34124;BME280;13153;52.316;21.166;2023-03-26T12:41:38;98907.94;;;15.84;53.52
34124;BME280;13153;52.316;21.166;2023-03-26T12:44:45;98898.75;;;16.02;53.74
34124;BME280;13153;52.316;21.166;2023-03-26T12:47:25;98897.00;;;16.01;55.00
34124;BME280;13153;52.316;21.166;2023-03-26T12:49:53;98895.22;;;16.03;54.02
34124;BME280;13153;52.316;21.166;2023-03-26T12:52:55;98889.88;;;16.04;52.76
34124;BME280;13153;52.316;21.166;2023-03-26T12:58:58;98890.41;;;16.20;51.79
34124;BME280;13153;52.316;21.166;2023-03-26T13:08:11;98882.31;;;16.28;46.79
34124;BME280;13153;52.316;21.166;2023-03-26T13:11:20;98893.59;;;16.37;46.73
34124;BME280;13153;52.316;21.166;2023-03-26T13:17:26;98885.66;;;16.36;45.23
34124;BME280;13153;52.316;21.166;2023-03-26T13:31:21;98890.59;;;16.54;45.09
34124;BME280;13153;52.316;21.166;2023-03-26T13:34:13;98892.91;;;16.71;44.66
34124;BME280;13153;52.316;21.166;2023-03-26T13:37:02;98883.09;;;16.74;44.84
34124;BME280;13153;52.316;21.166;2023-03-26T13:48:20;98878.56;;;16.78;43.65
34124;BME280;13153;52.316;21.166;2023-03-26T13:51:10;98883.41;;;16.59;43.58
34124;BME280;13153;52.316;21.166;2023-03-26T13:53:53;98879.22;;;16.47;44.82
34124;BME280;13153;52.316;21.166;2023-03-26T13:56:33;98879.44;;;16.37;44.85
34124;BME280;13153;52.316;21.166;2023-03-26T13:59:10;98879.56;;;16.32;44.99
34124;BME280;13153;52.316;21.166;2023-03-26T14:01:46;98885.88;;;16.25;44.97
34124;BME280;13153;52.316;21.166;2023-03-26T14:04:35;98886.84;;;16.21;44.63
34124;BME280;13153;52.316;21.166;2023-03-26T14:07:40;98893.28;;;16.11;45.98
34124;BME280;13153;52.316;21.166;2023-03-26T14:10:16;98889.91;;;16.03;47.26
34124;BME280;13153;52.316;21.166;2023-03-26T14:13:05;98886.38;;;16.02;48.24
34124;BME280;13153;52.316;21.166;2023-03-26T14:15:41;98897.97;;;15.97;48.44
34124;BME280;13153;52.316;21.166;2023-03-26T14:18:51;98895.50;;;15.88;48.37
34124;BME280;13153;52.316;21.166;2023-03-26T14:22:02;98897.66;;;15.66;49.65
34124;BME280;13153;52.316;21.166;2023-03-26T14:28:18;98900.41;;;15.61;51.07
34124;BME280;13153;52.316;21.166;2023-03-26T14:36:57;98898.81;;;15.51;51.71
34124;BME280;13153;52.316;21.166;2023-03-26T14:39:48;98895.19;;;15.57;51.33
34124;BME280;13153;52.316;21.166;2023-03-26T14:42:40;98894.06;;;15.68;51.02
34124;BME280;13153;52.316;21.166;2023-03-26T14:51:27;98892.91;;;15.84;47.61
34124;BME280;13153;52.316;21.166;2023-03-26T14:54:08;98882.22;;;15.88;46.55
34124;BME280;13153;52.316;21.166;2023-03-26T15:12:30;98890.19;;;15.88;44.76
34124;BME280;13153;52.316;21.166;2023-03-26T15:15:56;98891.22;;;15.80;44.83
34124;BME280;13153;52.316;21.166;2023-03-26T15:19:29;98885.09;;;15.77;45.10
34124;BME280;13153;52.316;21.166;2023-03-26T15:31:48;98889.50;;;15.76;45.67
34124;BME280;13153;52.316;21.166;2023-03-26T15:45:50;98908.75;;;15.88;45.23
34124;BME280;13153;52.316;21.166;2023-03-26T15:48:47;98918.59;;;15.81;45.37
34124;BME280;13153;52.316;21.166;2023-03-26T15:51:53;98904.69;;;15.68;45.41
34124;BME280;13153;52.316;21.166;2023-03-26T16:02:49;98919.94;;;15.56;45.85
34124;BME280;13153;52.316;21.166;2023-03-26T16:10:59;98929.06;;;15.38;46.10
34124;BME280;13153;52.316;21.166;2023-03-26T16:13:40;98922.03;;;15.35;45.46
34124;BME280;13153;52.316;21.166;2023-03-26T16:16:20;98924.72;;;15.34;44.76
34124;BME280;13153;52.316;21.166;2023-03-26T16:18:57;98935.34;;;15.31;45.00
34124;BME280;13153;52.316;21.166;2023-03-26T16:21:58;98926.69;;;15.19;44.80
34124;BME280;13153;52.316;21.166;2023-03-26T16:25:06;98927.72;;;15.11;44.73
34124;BME280;13153;52.316;21.166;2023-03-26T16:27:32;98927.75;;;15.08;44.70
34124;BME280;13153;52.316;21.166;2023-03-26T16:30:25;98928.59;;;15.11;44.91
34124;BME280;13153;52.316;21.166;2023-03-26T16:33:14;98932.91;;;15.17;44.83
34124;BME280;13153;52.316;21.166;2023-03-26T16:36:00;98934.53;;;15.26;44.68
34124;BME280;13153;52.316;21.166;2023-03-26T16:41:28;98944.97;;;15.38;44.60
34124;BME280;13153;52.316;21.166;2023-03-26T16:52:49;98950.19;;;15.42;44.49
34124;BME280;13153;52.316;21.166;2023-03-26T16:55:57;98937.00;;;15.38;44.63
34124;BME280;13153;52.316;21.166;2023-03-26T16:58:32;98941.50;;;15.33;44.87
34124;BME280;13153;52.316;21.166;2023-03-26T17:01:45;98957.44;;;15.31;44.79
34124;BME280;13153;52.316;21.166;2023-03-26T17:04:17;98952.22;;;15.25;44.68
34124;BME280;13153;52.316;21.166;2023-03-26T17:07:07;98956.75;;;15.18;44.92
34124;BME280;13153;52.316;21.166;2023-03-26T17:10:13;98958.53;;;15.16;44.86
34124;BME280;13153;52.316;21.166;2023-03-26T17:12:54;98962.22;;;15.05;45.15
34124;BME280;13153;52.316;21.166;2023-03-26T17:21:40;98971.41;;;14.82;45.08
34124;BME280;13153;52.316;21.166;2023-03-26T17:24:48;98964.41;;;14.77;45.47
34124;BME280;13153;52.316;21.166;2023-03-26T17:27:49;98968.88;;;14.72;45.64
34124;BME280;13153;52.316;21.166;2023-03-26T17:41:10;98972.59;;;14.59;45.65
34124;BME280;13153;52.316;21.166;2023-03-26T17:43:44;98964.66;;;14.57;45.21
34124;BME280;13153;52.316;21.166;2023-03-26T17:49:27;98970.16;;;14.43;45.45
34124;BME280;13153;52.316;21.166;2023-03-26T17:52:04;98978.13;;;14.37;45.83
34124;BME280;13153;52.316;21.166;2023-03-26T17:54:44;98971.16;;;14.30;46.09
34124;BME280;13153;52.316;21.166;2023-03-26T17:57:25;98974.72;;;14.26;46.39
34124;BME280;13153;52.316;21.166;2023-03-26T17:59:56;98971.25;;;14.21;46.07
34124;BME280;13153;52.316;21.166;2023-03-26T18:02:40;98976.53;;;14.23;46.16
34124;BME280;13153;52.316;21.166;2023-03-26T18:05:14;98975.69;;;14.19;46.53
34124;BME280;13153;52.316;21.166;2023-03-26T18:08:07;98970.41;;;14.16;46.56
34124;BME280;13153;52.316;21.166;2023-03-26T18:11:09;98973.09;;;14.14;46.68
34124;BME280;13153;52.316;21.166;2023-03-26T18:16:35;98967.88;;;14.07;46.80
34124;BME280;13153;52.316;21.166;2023-03-26T18:19:08;98972.28;;;14.05;47.03
34124;BME280;13153;52.316;21.166;2023-03-26T18:21:48;98971.44;;;14.03;46.96
34124;BME280;13153;52.316;21.166;2023-03-26T18:27:10;98972.38;;;13.97;46.94
34124;BME280;13153;52.316;21.166;2023-03-26T18:29:42;98975.06;;;13.93;47.13